Time;durP1;ratioP1;P1;durP2;ratioP2;P2;SDS_P1;SDS_P2;PMS_P1;PMS_P2;Temp;Humidity;BMP_temperature;BMP_pressure;BME280_temperature;BME280_humidity;BME280_pressure;Samples;Min_cycle;Max_cycle;Signal;HPM_P1;HPM_P2
2021/04/30 00:02:14;;;;;;;4.85;3.30;;;17.20;99.90;;;;;;5113864;27;20043;-57
2021/04/30 00:04:41;;;;;;;5.00;2.67;;;17.20;99.90;;;;;;5105581;28;20051;-57
2021/04/30 00:07:09;;;;;;;3.92;2.67;;;17.20;99.90;;;;;;5116071;27;20504;-58
2021/04/30 00:09:36;;;;;;;5.57;2.90;;;17.00;99.90;;;;;;5125640;27;20059;-58
2021/04/30 00:12:04;;;;;;;7.45;2.75;;;16.90;99.90;;;;;;5115093;27;20040;-57
2021/04/30 00:14:32;;;;;;;4.82;2.88;;;17.10;99.90;;;;;;5088844;28;20150;-58
2021/04/30 00:16:59;;;;;;;7.43;3.05;;;17.10;99.90;;;;;;5097323;27;20047;-57
2021/04/30 00:19:27;;;;;;;4.75;2.38;;;17.10;99.90;;;;;;5107023;27;20058;-58
2021/04/30 00:21:54;;;;;;;4.30;2.40;;;17.00;99.90;;;;;;5114622;27;20143;-58
2021/04/30 00:24:22;;;;;;;5.18;2.90;;;17.10;99.90;;;;;;5106220;27;20408;-58
2021/04/30 00:26:49;;;;;;;5.25;3.03;;;17.10;99.90;;;;;;5115147;27;20051;-58
2021/04/30 00:29:17;;;;;;;5.95;3.15;;;17.20;99.90;;;;;;5105435;27;20075;-58
2021/04/30 00:31:44;;;;;;;5.45;2.88;;;17.20;99.90;;;;;;5098234;27;20043;-58
2021/04/30 00:34:12;;;;;;;5.00;2.83;;;17.20;99.90;;;;;;5070505;28;20050;-58
2021/04/30 00:36:39;;;;;;;3.47;2.38;;;17.00;99.90;;;;;;5128275;27;20100;-58
2021/04/30 00:39:07;;;;;;;5.00;2.78;;;16.80;99.90;;;;;;5090101;28;20048;-58
2021/04/30 00:41:34;;;;;;;5.25;3.05;;;16.60;99.90;;;;;;5075562;28;20113;-58
2021/04/30 00:44:06;;;;;;;3.70;2.25;;;16.30;99.90;;;;;;5107563;27;20498;-58
2021/04/30 00:46:34;;;;;;;4.82;2.60;;;16.10;99.90;;;;;;5079122;28;20050;-58
2021/04/30 00:49:02;;;;;;;3.90;2.70;;;16.10;99.90;;;;;;5107531;27;20062;-57
2021/04/30 00:51:30;;;;;;;5.15;2.78;;;16.10;99.90;;;;;;5062127;28;20489;-57
2021/04/30 00:53:58;;;;;;;4.40;2.47;;;16.00;99.90;;;;;;5114212;27;20607;-58
2021/04/30 00:56:25;;;;;;;5.30;2.70;;;16.10;99.90;;;;;;5116565;27;20043;-57
2021/04/30 00:58:53;;;;;;;5.30;3.00;;;16.00;99.90;;;;;;5086794;27;20051;-58
2021/04/30 01:01:20;;;;;;;6.18;2.85;;;15.90;99.90;;;;;;5116065;27;20062;-58
2021/04/30 01:03:48;;;;;;;4.85;2.83;;;15.90;99.90;;;;;;5091669;27;20474;-57
2021/04/30 01:06:16;;;;;;;3.90;2.35;;;15.90;99.90;;;;;;5095732;28;20036;-58
2021/04/30 01:08:44;;;;;;;4.93;2.70;;;15.80;99.90;;;;;;5101213;27;20119;-58
2021/04/30 01:11:11;;;;;;;6.70;2.83;;;15.90;99.90;;;;;;5134519;27;20043;-57
2021/04/30 01:13:39;;;;;;;5.97;2.90;;;16.10;99.90;;;;;;5109268;28;20451;-57
2021/04/30 01:16:06;;;;;;;9.13;3.42;;;16.20;99.90;;;;;;5095769;28;20075;-57
2021/04/30 01:18:42;;;;;;;4.45;2.70;;;16.20;99.90;;;;;;5098613;28;20052;-57
2021/04/30 01:21:10;;;;;;;5.63;2.70;;;16.20;99.90;;;;;;5075124;28;20052;-58
2021/04/30 01:23:52;;;;;;;4.10;1.95;;;16.30;99.90;;;;;;5097646;28;20043;-57
2021/04/30 01:26:21;;;;;;;4.25;2.08;;;16.30;99.90;;;;;;5075217;28;20044;-57
2021/04/30 01:28:48;;;;;;;4.35;2.30;;;16.30;99.90;;;;;;5100430;28;20112;-57
2021/04/30 01:31:17;;;;;;;6.38;2.25;;;16.40;99.90;;;;;;5115902;28;20061;-58
2021/04/30 01:33:53;;;;;;;3.90;2.22;;;16.40;99.90;;;;;;5103028;28;20085;-58
2021/04/30 01:36:20;;;;;;;5.43;3.20;;;16.40;99.90;;;;;;5116154;28;20035;-58
2021/04/30 01:38:47;;;;;;;6.63;2.67;;;16.50;99.90;;;;;;5103156;28;20056;-57
2021/04/30 01:41:18;;;;;;;6.80;2.47;;;16.40;99.90;;;;;;5115716;28;20458;-58
2021/04/30 01:43:45;;;;;;;4.30;2.75;;;16.30;99.90;;;;;;5112637;27;20053;-57
2021/04/30 01:46:12;;;;;;;4.25;2.88;;;16.30;99.90;;;;;;5099440;28;20057;-57
2021/04/30 01:48:40;;;;;;;6.30;2.40;;;16.10;99.90;;;;;;5087636;28;20085;-57
2021/04/30 01:51:08;;;;;;;6.07;3.42;;;15.90;99.90;;;;;;5062526;28;20040;-57
2021/04/30 01:53:36;;;;;;;5.68;2.60;;;15.80;99.90;;;;;;5117848;27;20443;-57
2021/04/30 01:56:12;;;;;;;6.60;3.50;;;15.70;99.90;;;;;;5119950;27;20096;-57
2021/04/30 01:58:41;;;;;;;5.18;3.13;;;15.50;99.90;;;;;;5090268;28;20062;-57
2021/04/30 02:01:10;;;;;;;8.13;3.20;;;15.50;99.90;;;;;;5095528;28;20052;-57
2021/04/30 02:03:37;;;;;;;5.03;2.80;;;15.40;99.90;;;;;;5101222;28;20121;-58
2021/04/30 02:06:05;;;;;;;7.75;3.78;;;15.40;99.90;;;;;;5119561;27;20134;-57
2021/04/30 02:08:32;;;;;;;7.72;3.20;;;15.30;99.90;;;;;;5090775;28;20047;-58
2021/04/30 02:11:02;;;;;;;7.18;3.92;;;15.40;99.90;;;;;;5102632;27;20043;-57
2021/04/30 02:13:30;;;;;;;5.50;2.95;;;15.40;99.90;;;;;;5095745;27;20573;-57
2021/04/30 02:15:58;;;;;;;6.55;2.90;;;15.50;99.90;;;;;;5100362;28;20413;-58
2021/04/30 02:18:26;;;;;;;3.88;2.53;;;15.50;99.90;;;;;;5104334;28;20505;-57
2021/04/30 02:20:53;;;;;;;5.80;3.17;;;15.40;99.90;;;;;;5117152;27;20096;-57
2021/04/30 02:23:21;;;;;;;5.82;2.90;;;15.50;99.90;;;;;;5112210;27;20057;-57
2021/04/30 02:25:49;;;;;;;7.70;3.08;;;15.30;99.90;;;;;;5101134;28;20055;-57
2021/04/30 02:28:16;;;;;;;7.82;2.88;;;15.30;99.90;;;;;;5087329;28;20043;-57
2021/04/30 02:30:47;;;;;;;4.07;2.40;;;15.20;99.90;;;;;;5102798;27;20055;-58
2021/04/30 02:33:14;;;;;;;6.30;3.10;;;15.20;99.90;;;;;;5112348;27;20051;-57
2021/04/30 02:35:44;;;;;;;7.20;3.53;;;15.00;99.90;;;;;;5120226;27;20052;-57
2021/04/30 02:38:14;;;;;;;6.13;2.88;;;15.00;99.90;;;;;;5103525;28;20134;-57
2021/04/30 02:40:44;;;;;;;4.38;2.60;;;14.90;99.90;;;;;;5115485;27;20051;-57
2021/04/30 02:43:14;;;;;;;9.55;3.40;;;14.80;99.90;;;;;;5076595;28;20048;-58
2021/04/30 02:45:43;;;;;;;8.13;3.85;;;14.70;99.90;;;;;;5133435;27;20047;-57
2021/04/30 02:48:21;;;;;;;5.57;2.67;;;14.50;99.90;;;;;;5111961;27;20054;-57
2021/04/30 02:50:49;;;;;;;9.00;3.33;;;14.40;99.90;;;;;;5118795;27;20048;-57
2021/04/30 02:53:16;;;;;;;5.80;3.08;;;14.30;99.90;;;;;;5102475;28;20528;-57
2021/04/30 02:55:44;;;;;;;8.40;3.80;;;14.20;99.90;;;;;;5115256;27;20059;-57
2021/04/30 02:58:11;;;;;;;9.05;3.42;;;14.20;99.90;;;;;;5093358;28;20048;-57
2021/04/30 03:00:39;;;;;;;7.32;3.10;;;14.20;99.90;;;;;;5114572;27;20456;-57
2021/04/30 03:03:06;;;;;;;8.10;3.45;;;14.20;99.90;;;;;;5112351;27;20051;-57
2021/04/30 03:05:34;;;;;;;7.43;3.55;;;14.30;99.90;;;;;;5102116;28;20040;-58
2021/04/30 03:08:01;;;;;;;7.53;4.55;;;14.40;99.90;;;;;;5103090;28;20418;-57
2021/04/30 03:10:29;;;;;;;5.85;3.25;;;14.50;99.90;;;;;;5113223;27;20459;-58
2021/04/30 03:12:56;;;;;;;7.35;3.13;;;14.60;99.90;;;;;;5111890;27;20443;-57
2021/04/30 03:15:23;;;;;;;7.15;3.95;;;14.60;99.90;;;;;;5103468;28;20075;-57
2021/04/30 03:17:51;;;;;;;8.90;4.07;;;14.60;99.90;;;;;;5103001;27;20382;-57
2021/04/30 03:20:18;;;;;;;9.30;4.53;;;14.50;99.90;;;;;;5111114;27;20055;-58
2021/04/30 03:22:47;;;;;;;9.88;5.78;;;14.60;99.90;;;;;;5111110;27;20055;-58
2021/04/30 03:25:15;;;;;;;7.90;3.30;;;14.60;99.90;;;;;;5104948;28;20043;-57
2021/04/30 03:27:43;;;;;;;6.90;3.40;;;14.60;99.90;;;;;;5086110;27;20038;-57
2021/04/30 03:30:11;;;;;;;6.70;3.45;;;14.60;99.90;;;;;;5110147;27;20043;-57
2021/04/30 03:32:39;;;;;;;9.48;3.55;;;14.60;99.90;;;;;;5111071;28;20130;-57
2021/04/30 03:35:07;;;;;;;6.70;3.00;;;14.60;99.90;;;;;;5088765;28;20054;-57
2021/04/30 03:37:35;;;;;;;7.15;3.53;;;14.70;99.90;;;;;;5085299;27;20046;-57
2021/04/30 03:40:03;;;;;;;7.40;3.50;;;14.70;99.90;;;;;;5126537;27;20055;-57
2021/04/30 03:42:30;;;;;;;7.65;2.92;;;14.70;99.90;;;;;;5111884;28;20126;-57
2021/04/30 03:44:58;;;;;;;10.43;3.35;;;14.70;99.90;;;;;;5124520;27;20449;-57
2021/04/30 03:47:25;;;;;;;7.70;3.67;;;14.70;99.90;;;;;;5100642;27;20051;-58
2021/04/30 03:50:00;;;;;;;7.72;3.70;;;14.70;99.90;;;;;;5109759;27;20047;-57
2021/04/30 03:52:28;;;;;;;10.00;3.10;;;14.80;99.90;;;;;;5112254;27;20040;-58
2021/04/30 03:54:55;;;;;;;7.47;3.13;;;14.70;99.90;;;;;;5105601;28;20047;-57
2021/04/30 03:57:22;;;;;;;5.93;3.03;;;14.80;99.90;;;;;;5115485;27;20493;-58
2021/04/30 03:59:50;;;;;;;9.07;3.90;;;14.90;99.90;;;;;;5126318;27;20119;-57
2021/04/30 04:02:17;;;;;;;4.70;3.00;;;15.00;99.90;;;;;;5113469;27;20043;-57
2021/04/30 04:04:44;;;;;;;8.05;3.65;;;15.00;99.90;;;;;;5122985;27;20054;-58
2021/04/30 04:07:12;;;;;;;6.05;3.22;;;15.20;99.90;;;;;;5116492;27;20075;-57
2021/04/30 04:09:39;;;;;;;6.60;3.67;;;15.20;99.90;;;;;;5109246;27;20492;-57
2021/04/30 04:12:09;;;;;;;7.90;3.42;;;15.30;99.90;;;;;;5131669;27;20050;-57
2021/04/30 04:14:42;;;;;;;7.93;3.00;;;15.20;99.90;;;;;;5108918;27;20131;-57
2021/04/30 04:17:12;;;;;;;10.13;3.15;;;15.20;99.90;;;;;;5114313;27;20419;-57
2021/04/30 04:19:50;;;;;;;8.75;3.97;;;15.20;99.90;;;;;;5106925;28;20081;-57
2021/04/30 04:22:18;;;;;;;7.15;2.83;;;15.10;99.90;;;;;;5099009;27;20062;-57
2021/04/30 04:24:46;;;;;;;10.25;3.88;;;15.10;99.90;;;;;;5107419;27;20055;-57
2021/04/30 04:27:13;;;;;;;9.27;3.60;;;15.00;99.90;;;;;;5075482;27;20046;-57
2021/04/30 04:29:41;;;;;;;5.75;3.13;;;15.00;99.90;;;;;;5108882;27;20127;-57
2021/04/30 04:32:08;;;;;;;8.57;3.50;;;15.10;99.90;;;;;;5116152;27;20047;-57
2021/04/30 04:34:36;;;;;;;6.75;2.92;;;15.20;99.90;;;;;;5082914;28;20040;-57
2021/04/30 04:37:04;;;;;;;5.05;2.72;;;15.20;99.90;;;;;;5110405;27;20043;-60
2021/04/30 04:39:32;;;;;;;13.85;4.05;;;15.20;99.90;;;;;;5099131;28;20130;-60
2021/04/30 04:42:02;;;;;;;9.00;4.20;;;15.20;99.90;;;;;;5095321;27;20051;-60
2021/04/30 04:44:29;;;;;;;8.40;4.28;;;15.30;99.90;;;;;;5074011;27;20070;-60
2021/04/30 04:46:58;;;;;;;6.55;3.75;;;15.30;99.90;;;;;;5104717;27;20047;-57
2021/04/30 04:49:26;;;;;;;6.53;3.42;;;15.40;99.90;;;;;;5092662;27;20066;-58
2021/04/30 04:51:53;;;;;;;10.75;3.65;;;15.50;99.90;;;;;;5101244;28;20914;-58
2021/04/30 04:54:21;;;;;;;6.80;3.38;;;15.50;99.90;;;;;;5092269;27;20481;-58
2021/04/30 04:56:49;;;;;;;12.45;4.43;;;15.50;99.90;;;;;;5085450;28;20046;-57
2021/04/30 04:59:17;;;;;;;8.15;3.83;;;15.60;99.90;;;;;;5120443;27;20058;-57
2021/04/30 05:01:44;;;;;;;11.55;3.47;;;15.70;99.90;;;;;;5100192;28;20047;-57
2021/04/30 05:04:12;;;;;;;5.97;2.80;;;15.90;99.90;;;;;;5084773;28;20044;-58
2021/04/30 05:06:40;;;;;;;10.85;2.92;;;15.90;99.90;;;;;;5116220;27;20051;-58
2021/04/30 05:09:07;;;;;;;8.20;3.17;;;15.90;99.90;;;;;;5106700;27;20047;-57
2021/04/30 05:11:35;;;;;;;5.35;3.00;;;16.00;99.90;;;;;;5122075;27;20047;-58
2021/04/30 05:14:02;;;;;;;6.55;2.90;;;15.90;99.90;;;;;;5120850;28;20051;-57
2021/04/30 05:16:30;;;;;;;14.10;3.22;;;16.00;99.90;;;;;;5102929;27;20079;-58
2021/04/30 05:18:58;;;;;;;12.32;4.93;;;16.00;99.90;;;;;;5104022;28;20088;-57
2021/04/30 05:21:25;;;;;;;10.05;3.30;;;16.10;99.90;;;;;;5107076;28;20493;-57
2021/04/30 05:23:57;;;;;;;7.43;3.17;;;16.00;99.90;;;;;;5086735;28;20096;-57
2021/04/30 05:26:29;;;;;;;10.23;4.82;;;16.10;99.90;;;;;;5082417;28;20047;-57
2021/04/30 05:28:57;;;;;;;12.07;3.63;;;16.30;99.90;;;;;;5102039;28;20155;-58
2021/04/30 05:31:25;;;;;;;5.78;3.53;;;16.40;99.90;;;;;;5098821;28;20047;-57
2021/04/30 05:33:53;;;;;;;8.73;4.03;;;16.40;99.90;;;;;;5074134;28;20043;-57
2021/04/30 05:36:21;;;;;;;9.98;5.25;;;16.60;99.90;;;;;;5095874;28;20051;-57
2021/04/30 05:38:48;;;;;;;6.40;3.45;;;16.70;99.90;;;;;;5119494;28;20063;-58
2021/04/30 05:41:16;;;;;;;11.35;3.30;;;16.90;99.90;;;;;;5115663;28;20047;-59
2021/04/30 05:43:43;;;;;;;15.73;3.85;;;17.10;99.90;;;;;;5103053;28;20139;-58
2021/04/30 05:46:10;;;;;;;14.70;3.95;;;17.10;99.90;;;;;;5116109;28;20051;-57
2021/04/30 05:48:38;;;;;;;12.52;4.05;;;17.30;99.90;;;;;;5109187;28;20039;-58
2021/04/30 05:51:06;;;;;;;9.10;4.15;;;17.40;99.90;;;;;;5078654;28;20043;-57
2021/04/30 05:53:34;;;;;;;10.13;3.60;;;17.60;99.90;;;;;;5111317;28;20062;-57
2021/04/30 05:56:01;;;;;;;12.27;4.68;;;17.80;99.90;;;;;;5115598;28;20043;-57
2021/04/30 05:58:29;;;;;;;16.35;4.72;;;18.00;99.90;;;;;;5109076;28;20394;-58
2021/04/30 06:00:56;;;;;;;12.10;4.57;;;18.10;99.90;;;;;;5096660;28;20050;-57
2021/04/30 06:03:25;;;;;;;10.70;3.58;;;18.10;99.90;;;;;;5118599;28;20393;-58
2021/04/30 06:05:52;;;;;;;8.27;4.05;;;18.40;99.90;;;;;;5096609;28;20054;-58
2021/04/30 06:08:20;;;;;;;16.00;4.80;;;18.60;99.90;;;;;;5108941;28;20493;-58
2021/04/30 06:10:47;;;;;;;12.82;4.32;;;18.70;99.90;;;;;;5098056;28;20118;-58
2021/04/30 06:13:15;;;;;;;17.67;5.93;;;18.50;99.90;;;;;;5100776;28;20443;-58
2021/04/30 06:15:42;;;;;;;13.15;4.15;;;18.50;99.90;;;;;;5098786;28;20043;-57
2021/04/30 06:18:10;;;;;;;11.07;4.75;;;18.50;99.90;;;;;;5125889;28;20382;-57
2021/04/30 06:20:37;;;;;;;9.80;4.75;;;18.70;99.90;;;;;;5111029;28;20059;-58
2021/04/30 06:23:04;;;;;;;18.63;4.60;;;18.70;99.90;;;;;;5108813;28;20055;-57
2021/04/30 06:25:32;;;;;;;11.77;5.05;;;18.80;99.90;;;;;;5099444;28;20047;-57
2021/04/30 06:27:59;;;;;;;9.75;5.07;;;18.80;99.90;;;;;;5112752;27;20100;-58
2021/04/30 06:30:27;;;;;;;10.82;4.10;;;18.90;99.90;;;;;;5113782;27;20074;-58
2021/04/30 06:32:55;;;;;;;12.15;4.13;;;18.90;99.90;;;;;;5112538;27;20051;-58
2021/04/30 06:35:23;;;;;;;16.15;5.05;;;19.20;99.90;;;;;;5104430;28;20121;-58
2021/04/30 06:37:51;;;;;;;10.65;4.35;;;19.20;99.90;;;;;;5082663;27;20043;-58
2021/04/30 06:40:18;;;;;;;12.73;4.70;;;19.30;99.90;;;;;;5112172;27;20074;-58
2021/04/30 06:42:45;;;;;;;21.92;5.45;;;19.40;99.90;;;;;;5112255;28;20063;-58
2021/04/30 06:45:13;;;;;;;13.32;3.75;;;19.50;99.90;;;;;;5089315;28;20052;-57
2021/04/30 06:47:40;;;;;;;13.60;4.75;;;19.50;99.90;;;;;;5086680;27;20130;-58
2021/04/30 06:50:08;;;;;;;15.30;4.55;;;19.60;99.90;;;;;;5128801;27;20393;-57
2021/04/30 06:52:38;;;;;;;13.98;4.47;;;19.60;99.90;;;;;;5112446;28;20498;-58
2021/04/30 06:55:07;;;;;;;14.45;3.92;;;19.70;99.90;;;;;;5106212;28;20130;-58
2021/04/30 06:57:42;;;;;;;19.85;5.65;;;19.70;99.90;;;;;;5103411;27;20477;-58
2021/04/30 07:00:10;;;;;;;13.13;5.82;;;19.70;99.90;;;;;;5111045;27;20055;-58
2021/04/30 07:02:38;;;;;;;12.57;4.10;;;20.00;99.90;;;;;;5097789;27;20051;-58
2021/04/30 07:05:06;;;;;;;9.27;3.70;;;20.20;99.90;;;;;;5092913;27;20093;-58
2021/04/30 07:07:34;;;;;;;16.38;5.63;;;20.40;99.90;;;;;;5114568;27;20493;-58
2021/04/30 07:10:02;;;;;;;15.82;4.05;;;20.50;99.90;;;;;;5109192;27;20070;-58
2021/04/30 07:12:30;;;;;;;12.13;3.92;;;20.80;99.90;;;;;;5112853;28;20042;-58
2021/04/30 07:14:58;;;;;;;9.95;4.68;;;20.90;99.90;;;;;;5106641;28;20050;-58
2021/04/30 07:17:28;;;;;;;12.75;4.40;;;20.90;99.90;;;;;;5083481;27;20050;-58
2021/04/30 07:19:55;;;;;;;17.08;6.68;;;20.90;99.90;;;;;;5089746;28;20071;-58
2021/04/30 07:22:23;;;;;;;21.90;6.05;;;21.00;99.90;;;;;;5101058;27;20502;-58
2021/04/30 07:24:50;;;;;;;16.42;6.03;;;21.10;99.90;;;;;;5109134;27;20087;-57
2021/04/30 07:27:18;;;;;;;10.38;3.50;;;21.20;99.90;;;;;;5113864;27;20046;-58
2021/04/30 07:29:49;;;;;;;16.42;5.00;;;21.40;99.90;;;;;;5081320;28;20093;-58
2021/04/30 07:32:17;;;;;;;11.27;4.22;;;21.50;99.90;;;;;;5117706;27;20466;-58
2021/04/30 07:34:45;;;;;;;12.88;4.75;;;21.80;99.90;;;;;;5091422;27;20058;-58
2021/04/30 07:37:13;;;;;;;16.25;7.13;;;21.80;99.90;;;;;;5114489;27;20373;-58
2021/04/30 07:39:41;;;;;;;13.43;4.35;;;21.80;99.90;;;;;;5072106;28;20131;-59
2021/04/30 07:42:11;;;;;;;9.35;4.07;;;21.90;99.90;;;;;;5098671;27;20130;-58
2021/04/30 07:44:40;;;;;;;13.45;5.32;;;22.00;99.90;;;;;;5108513;27;20059;-58
2021/04/30 07:47:08;;;;;;;12.60;3.80;;;22.10;99.90;;;;;;5113828;27;20462;-58
2021/04/30 07:49:35;;;;;;;11.85;5.32;;;22.10;99.90;;;;;;5091230;27;20054;-58
2021/04/30 07:52:03;;;;;;;15.77;5.43;;;22.10;99.90;;;;;;5115135;27;20100;-58
2021/04/30 07:54:31;;;;;;;16.40;4.03;;;22.20;99.90;;;;;;5084239;28;20382;-58
2021/04/30 07:56:59;;;;;;;11.50;3.83;;;22.30;99.90;;;;;;5114625;27;20043;-58
2021/04/30 07:59:27;;;;;;;15.40;5.80;;;22.30;99.90;;;;;;5107133;27;20460;-58
2021/04/30 08:01:54;;;;;;;11.13;3.47;;;22.50;99.90;;;;;;5114961;27;20148;-58
2021/04/30 08:04:21;;;;;;;10.40;3.65;;;22.60;99.90;;;;;;5106467;27;20066;-58
2021/04/30 08:06:49;;;;;;;18.30;5.13;;;22.70;99.90;;;;;;5115683;27;20047;-58
2021/04/30 08:09:17;;;;;;;12.70;4.20;;;22.80;99.90;;;;;;5121814;27;20549;-59
2021/04/30 08:11:44;;;;;;;10.68;5.03;;;22.80;99.90;;;;;;5098704;27;20059;-58
2021/04/30 08:14:12;;;;;;;13.98;4.18;;;22.90;99.90;;;;;;5105650;27;20150;-58
2021/04/30 08:16:40;;;;;;;12.38;4.30;;;23.00;99.90;;;;;;5134116;27;20047;-58
2021/04/30 08:19:08;;;;;;;16.25;4.47;;;23.00;99.90;;;;;;5124485;27;20366;-58
2021/04/30 08:21:36;;;;;;;10.85;4.45;;;23.20;99.90;;;;;;5095704;28;20059;-59
2021/04/30 08:24:04;;;;;;;12.70;4.65;;;23.40;99.90;;;;;;5103826;27;20054;-58
2021/04/30 08:26:32;;;;;;;14.10;4.43;;;23.50;99.90;;;;;;5134651;27;20516;-59
2021/04/30 08:28:59;;;;;;;12.07;4.50;;;23.60;99.90;;;;;;5125849;27;20055;-58
2021/04/30 08:31:28;;;;;;;13.10;5.45;;;23.50;99.90;;;;;;5095948;28;20047;-58
2021/04/30 08:33:55;;;;;;;11.32;4.90;;;23.60;99.90;;;;;;5103201;27;20040;-58
2021/04/30 08:36:23;;;;;;;14.30;4.05;;;23.80;99.90;;;;;;5116654;27;20039;-59
2021/04/30 08:38:50;;;;;;;18.38;5.15;;;23.90;99.90;;;;;;5121973;27;20067;-59
2021/04/30 08:41:19;;;;;;;12.20;5.00;;;24.10;99.90;;;;;;5098976;27;20043;-59
2021/04/30 08:43:47;;;;;;;19.20;4.57;;;24.10;99.10;;;;;;5103537;27;20052;-58
2021/04/30 08:46:15;;;;;;;18.85;4.72;;;24.20;98.30;;;;;;5099505;27;20082;-58
2021/04/30 08:48:44;;;;;;;16.15;4.50;;;24.20;97.50;;;;;;5121979;27;20044;-58
2021/04/30 08:51:12;;;;;;;13.02;4.72;;;24.30;98.10;;;;;;5115576;27;20075;-58
2021/04/30 08:53:40;;;;;;;15.85;5.57;;;24.20;97.90;;;;;;5086601;28;20055;-59
2021/04/30 08:56:08;;;;;;;13.30;4.47;;;24.30;98.50;;;;;;5075442;28;20055;-58
2021/04/30 08:58:38;;;;;;;9.25;3.80;;;24.40;98.00;;;;;;5097944;28;20047;-58
2021/04/30 09:01:06;;;;;;;15.90;5.53;;;24.40;97.80;;;;;;5115728;27;20374;-58
2021/04/30 09:03:36;;;;;;;13.68;5.05;;;24.30;96.60;;;;;;5087318;28;20048;-59
2021/04/30 09:06:04;;;;;;;9.75;4.45;;;24.40;97.30;;;;;;5116092;27;20393;-59
2021/04/30 09:08:45;;;;;;;15.40;3.47;;;24.50;97.10;;;;;;5108877;27;20043;-59
2021/04/30 09:11:36;;;;;;;15.05;4.55;;;24.50;96.70;;;;;;5075178;28;20406;-59
2021/04/30 09:14:29;;;;;;;15.65;3.85;;;24.50;97.10;;;;;;5103830;27;20063;-59
2021/04/30 09:17:00;;;;;;;11.05;4.50;;;24.70;97.00;;;;;;5113740;28;20050;-58
2021/04/30 09:19:51;;;;;;;22.50;5.13;;;24.90;97.00;;;;;;5102048;28;20039;-59
2021/04/30 09:22:21;;;;;;;12.45;5.53;;;24.80;96.50;;;;;;5098189;28;20126;-58
2021/04/30 09:24:59;;;;;;;17.20;4.55;;;24.80;95.80;;;;;;5124446;28;20035;-58
2021/04/30 09:27:29;;;;;;;14.35;5.30;;;24.70;95.50;;;;;;5095084;28;20088;-58
2021/04/30 09:30:17;;;;;;;11.95;3.90;;;24.80;93.80;;;;;;5124930;28;20485;-58
2021/04/30 09:33:07;;;;;;;12.45;4.90;;;25.00;93.80;;;;;;5109329;28;20051;-59
2021/04/30 09:35:36;;;;;;;17.25;5.05;;;25.10;93.90;;;;;;5099386;28;20074;-58
2021/04/30 09:38:18;;;;;;;11.25;5.07;;;25.10;93.00;;;;;;5118816;28;20066;-58
2021/04/30 09:40:46;;;;;;;20.63;5.03;;;25.10;92.80;;;;;;5130861;28;20092;-58
2021/04/30 09:43:15;;;;;;;18.00;5.70;;;25.30;92.70;;;;;;5109016;28;20134;-58
2021/04/30 09:45:46;;;;;;;16.02;5.22;;;25.10;92.50;;;;;;5116651;28;20051;-58
2021/04/30 09:48:14;;;;;;;10.27;4.45;;;25.20;93.30;;;;;;5118808;28;20075;-58
2021/04/30 09:50:44;;;;;;;11.57;5.38;;;25.20;93.10;;;;;;5111790;28;20046;-59
2021/04/30 09:53:13;;;;;;;13.68;4.20;;;25.20;93.10;;;;;;5090145;28;20058;-58
2021/04/30 09:55:51;;;;;;;16.02;6.35;;;25.40;93.20;;;;;;5111426;28;20055;-59
2021/04/30 09:58:20;;;;;;;12.38;4.03;;;25.40;93.70;;;;;;5124268;28;20044;-59
2021/04/30 10:00:49;;;;;;;15.20;4.93;;;25.40;93.30;;;;;;5112633;28;20047;-59
2021/04/30 10:03:25;;;;;;;14.23;5.18;;;25.40;92.80;;;;;;5073672;28;20092;-60
2021/04/30 10:06:10;;;;;;;16.88;4.60;;;25.40;93.80;;;;;;5117342;27;20051;-59
2021/04/30 10:08:38;;;;;;;13.73;4.32;;;25.40;94.90;;;;;;5112702;27;20047;-59
2021/04/30 10:11:29;;;;;;;12.48;4.78;;;25.40;94.80;;;;;;5081890;28;20054;-58
2021/04/30 10:13:57;;;;;;;17.27;6.55;;;25.20;95.40;;;;;;5089109;27;20048;-59
2021/04/30 10:16:24;;;;;;;19.00;4.65;;;25.30;95.80;;;;;;5102356;27;20138;-58
2021/04/30 10:18:53;;;;;;;16.45;3.97;;;25.30;95.40;;;;;;5110846;27;20043;-58
2021/04/30 10:21:21;;;;;;;14.45;4.70;;;25.40;95.90;;;;;;5094508;28;20089;-59
2021/04/30 10:23:50;;;;;;;14.20;4.93;;;25.40;94.00;;;;;;5055102;28;20055;-59
2021/04/30 10:26:19;;;;;;;20.75;5.38;;;25.50;94.00;;;;;;5095166;28;20093;-59
2021/04/30 10:28:55;;;;;;;12.75;4.45;;;25.60;93.40;;;;;;5094131;28;20044;-59
2021/04/30 10:31:33;;;;;;;11.90;4.60;;;25.50;94.20;;;;;;5094783;28;20516;-59
2021/04/30 10:34:10;;;;;;;13.13;3.80;;;25.30;94.50;;;;;;5095623;28;20469;-59
2021/04/30 10:36:48;;;;;;;16.63;5.35;;;25.20;95.50;;;;;;5077753;28;20048;-59
2021/04/30 10:39:28;;;;;;;9.73;3.88;;;25.20;95.50;;;;;;5081179;28;20096;-59
2021/04/30 10:41:55;;;;;;;16.63;5.30;;;25.20;95.50;;;;;;5077235;28;20047;-58
2021/04/30 10:44:32;;;;;;;15.20;5.18;;;25.20;95.00;;;;;;5094723;28;20098;-59
2021/04/30 10:47:08;;;;;;;13.15;4.05;;;25.10;94.30;;;;;;5077416;28;20269;-59
2021/04/30 10:49:38;;;;;;;13.20;4.20;;;25.00;93.90;;;;;;5096060;28;20049;-58
2021/04/30 10:52:06;;;;;;;9.95;3.67;;;24.90;93.40;;;;;;5079345;28;20082;-59
2021/04/30 10:54:35;;;;;;;11.25;5.07;;;25.10;94.50;;;;;;5095551;28;20082;-59
2021/04/30 10:57:10;;;;;;;18.27;4.47;;;25.20;93.50;;;;;;5094463;28;20165;-59
2021/04/30 10:59:40;;;;;;;18.60;4.80;;;25.00;92.50;;;;;;5088518;28;20052;-58
2021/04/30 11:02:31;;;;;;;12.60;3.78;;;25.00;93.60;;;;;;5093881;28;20344;-59
2021/04/30 11:05:11;;;;;;;9.90;4.40;;;25.10;93.80;;;;;;5094334;28;20048;-59
2021/04/30 11:07:47;;;;;;;11.15;5.80;;;25.30;94.20;;;;;;5087250;28;20048;-59
2021/04/30 11:10:27;;;;;;;14.38;4.53;;;25.40;94.10;;;;;;5081558;28;20052;-58
2021/04/30 11:13:06;;;;;;;8.02;3.92;;;25.30;93.60;;;;;;5095768;28;20429;-59
2021/04/30 11:15:46;;;;;;;14.93;4.05;;;25.10;93.80;;;;;;5093454;28;20093;-58
2021/04/30 11:18:26;;;;;;;19.15;4.80;;;24.90;93.30;;;;;;5093585;28;20055;-58
2021/04/30 11:21:09;;;;;;;13.43;4.35;;;24.90;94.20;;;;;;5100678;28;20074;-58
2021/04/30 11:23:53;;;;;;;13.18;4.38;;;25.00;93.40;;;;;;5085601;28;20079;-59
2021/04/30 11:26:29;;;;;;;12.57;4.63;;;25.00;93.40;;;;;;5060864;28;20060;-59
2021/04/30 11:28:57;;;;;;;16.00;4.75;;;24.90;93.80;;;;;;5104830;27;20051;-58
2021/04/30 11:31:27;;;;;;;12.13;4.35;;;24.90;93.30;;;;;;5117778;27;20051;-59
2021/04/30 11:34:12;;;;;;;16.13;4.35;;;24.80;93.70;;;;;;5071281;27;20071;-59
2021/04/30 11:36:41;;;;;;;12.13;4.30;;;24.90;93.30;;;;;;5082970;27;20054;-59
2021/04/30 11:39:17;;;;;;;9.93;4.35;;;24.80;93.20;;;;;;5125877;27;20806;-59
2021/04/30 11:41:45;;;;;;;12.45;3.70;;;24.80;93.50;;;;;;5097079;27;20043;-59
2021/04/30 11:44:15;;;;;;;21.13;5.25;;;25.00;93.40;;;;;;5124127;27;20039;-59
2021/04/30 11:46:43;;;;;;;20.15;4.70;;;24.90;93.50;;;;;;5134503;27;20099;-60
2021/04/30 11:49:20;;;;;;;9.32;4.22;;;25.00;93.10;;;;;;5123968;27;20039;-59
2021/04/30 11:51:48;;;;;;;9.07;3.22;;;25.00;93.00;;;;;;5099268;27;20511;-59
2021/04/30 11:54:20;;;;;;;17.45;5.30;;;25.00;93.40;;;;;;5103760;27;20447;-59
2021/04/30 11:57:00;;;;;;;17.20;4.47;;;24.80;93.10;;;;;;5134028;27;20047;-59
2021/04/30 11:59:28;;;;;;;13.02;4.40;;;24.60;93.50;;;;;;5106859;27;20046;-59
2021/04/30 12:02:01;;;;;;;19.17;5.53;;;24.80;93.90;;;;;;5097719;27;20660;-59
2021/04/30 12:04:49;;;;;;;7.65;4.10;;;24.80;93.50;;;;;;5091180;28;20118;-59
2021/04/30 12:07:38;;;;;;;14.50;4.22;;;24.90;93.40;;;;;;5101579;27;20049;-59
2021/04/30 12:10:27;;;;;;;13.43;4.20;;;24.90;93.00;;;;;;5092501;27;20055;-59
2021/04/30 12:12:54;;;;;;;11.07;4.50;;;24.80;93.20;;;;;;5110434;27;20043;-59
2021/04/30 12:15:38;;;;;;;8.65;3.42;;;24.70;92.90;;;;;;5102722;28;20051;-60
2021/04/30 12:18:07;;;;;;;11.25;3.25;;;24.80;93.10;;;;;;5120069;27;20052;-60
2021/04/30 12:20:37;;;;;;;13.40;3.70;;;24.80;93.00;;;;;;5095012;27;20100;-59
2021/04/30 12:23:13;;;;;;;11.40;3.67;;;24.80;92.70;;;;;;5126691;27;20068;-59
2021/04/30 12:25:51;;;;;;;13.60;3.25;;;24.70;92.70;;;;;;5129924;27;20055;-60
2021/04/30 12:28:26;;;;;;;15.75;4.18;;;24.90;92.70;;;;;;5125270;27;20048;-59
2021/04/30 12:31:11;;;;;;;19.65;4.45;;;24.80;92.40;;;;;;5114553;27;20055;-60
2021/04/30 12:33:51;;;;;;;11.80;4.50;;;24.70;92.20;;;;;;5103739;27;20058;-60
2021/04/30 12:36:33;;;;;;;13.57;3.60;;;24.70;92.40;;;;;;5116506;27;20126;-60
2021/04/30 12:39:08;;;;;;;11.88;3.88;;;24.80;92.90;;;;;;5104260;27;20043;-60
2021/04/30 12:41:40;;;;;;;10.88;3.40;;;24.80;93.10;;;;;;5098670;27;20051;-60
2021/04/30 12:44:10;;;;;;;11.32;4.13;;;24.90;92.60;;;;;;5124326;27;20044;-60
2021/04/30 12:46:40;;;;;;;12.07;4.13;;;24.90;92.40;;;;;;5113849;27;20127;-59
2021/04/30 12:49:08;;;;;;;11.82;3.25;;;24.90;92.40;;;;;;5105594;28;20454;-60
2021/04/30 12:51:39;;;;;;;17.00;4.00;;;25.00;92.60;;;;;;5078201;28;20047;-60
2021/04/30 12:54:07;;;;;;;11.68;3.70;;;25.10;92.50;;;;;;5105022;28;20085;-59
2021/04/30 12:56:37;;;;;;;9.57;3.85;;;25.00;92.70;;;;;;5077513;28;20108;-59